Time;durP1;ratioP1;P1;durP2;ratioP2;P2;SDS_P1;SDS_P2;PMS_P1;PMS_P2;Temp;Humidity;BMP_temperature;BMP_pressure;BME280_temperature;BME280_humidity;BME280_pressure;Samples;Min_cycle;Max_cycle;Signal;HPM_P1;HPM_P2
2020/12/03 00:01:47;;;;;;;438.60;113.72;;;;;;;;;;5091898;28;20428;-72
2020/12/03 00:04:13;;;;;;;437.83;112.10;;;;;;;;;;5091989;28;20376;-71
2020/12/03 00:06:42;;;;;;;438.15;114.70;;;;;;;;;;5091938;28;20846;-72
2020/12/03 00:09:10;;;;;;;438.52;113.25;;;;;;;;;;5092047;28;20741;-72
2020/12/03 00:11:38;;;;;;;436.08;112.28;;;;;;;;;;5092562;28;20364;-71
2020/12/03 00:14:04;;;;;;;434.30;110.60;;;;;;;;;;5090712;28;20373;-71
2020/12/03 00:16:31;;;;;;;439.50;112.72;;;;;;;;;;5091971;28;20802;-72
2020/12/03 00:18:58;;;;;;;437.88;111.40;;;;;;;;;;5092463;28;20361;-72
2020/12/03 00:21:32;;;;;;;438.35;112.65;;;;;;;;;;5091749;28;20403;-71
2020/12/03 00:23:58;;;;;;;440.52;113.97;;;;;;;;;;5092129;28;20722;-71
2020/12/03 00:26:24;;;;;;;;;;;;;;;;;;5090834;28;20392;-72
2020/12/03 00:28:50;;;;;;;;;;;;;;;;;;5085891;28;20769;-71
2020/12/03 00:31:17;;;;;;;431.30;111.20;;;;;;;;;;5089148;28;20755;-71
2020/12/03 00:33:43;;;;;;;;;;;;;;;;;;5087589;28;25151;-72
2020/12/03 00:36:09;;;;;;;;;;;;;;;;;;5088438;28;20388;-71
2020/12/03 00:38:35;;;;;;;;;;;;;;;;;;5089269;28;25104;-71
2020/12/03 00:41:01;;;;;;;433.90;112.80;;;;;;;;;;5092061;28;20391;-71
2020/12/03 00:43:27;;;;;;;435.15;114.30;;;;;;;;;;5095135;28;21014;-71
2020/12/03 00:45:53;;;;;;;436.60;115.75;;;;;;;;;;5096082;28;20422;-73
2020/12/03 00:48:20;;;;;;;435.90;113.40;;;;;;;;;;5094998;28;20380;-73
2020/12/03 00:50:47;;;;;;;433.10;112.90;;;;;;;;;;5093874;28;20370;-72
2020/12/03 00:53:14;;;;;;;434.30;112.80;;;;;;;;;;5093143;28;25096;-72
2020/12/03 00:55:40;;;;;;;435.20;116.20;;;;;;;;;;5093262;28;20895;-73
2020/12/03 00:58:06;;;;;;;;;;;;;;;;;;5093052;28;20370;-73
2020/12/03 01:00:32;;;;;;;434.43;113.10;;;;;;;;;;5092865;28;20366;-72
2020/12/03 01:02:58;;;;;;;;;;;;;;;;;;5093165;28;20377;-73
2020/12/03 01:05:24;;;;;;;;;;;;;;;;;;5093021;28;20427;-72
2020/12/03 01:07:51;;;;;;;434.80;114.10;;;;;;;;;;5092560;28;20375;-72
2020/12/03 01:10:17;;;;;;;;;;;;;;;;;;5093743;28;20386;-73
2020/12/03 01:12:43;;;;;;;433.20;111.50;;;;;;;;;;5092328;28;20359;-73
2020/12/03 01:15:10;;;;;;;435.40;112.20;;;;;;;;;;5093445;28;20403;-73
2020/12/03 01:17:36;;;;;;;442.70;117.57;;;;;;;;;;5107356;28;20390;-72
2020/12/03 01:20:06;;;;;;;441.20;116.77;;;;;;;;;;5095805;28;20423;-72
2020/12/03 01:22:32;;;;;;;443.20;117.55;;;;;;;;;;5095793;28;20393;-72
2020/12/03 01:24:58;;;;;;;440.48;114.45;;;;;;;;;;5094602;28;20402;-72
2020/12/03 01:27:24;;;;;;;442.25;116.10;;;;;;;;;;5094909;28;20372;-72
2020/12/03 01:29:51;;;;;;;447.10;120.40;;;;;;;;;;5094502;28;20918;-72
2020/12/03 01:32:17;;;;;;;442.48;115.60;;;;;;;;;;5094425;28;20380;-72
2020/12/03 01:34:43;;;;;;;446.65;117.10;;;;;;;;;;5094479;28;20382;-71
2020/12/03 01:37:12;;;;;;;448.85;116.93;;;;;;;;;;5094709;28;20372;-72
2020/12/03 01:39:38;;;;;;;448.77;117.28;;;;;;;;;;5094588;28;20824;-72
2020/12/03 01:42:05;;;;;;;448.55;117.32;;;;;;;;;;5094207;28;20495;-72
2020/12/03 01:44:41;;;;;;;445.50;113.90;;;;;;;;;;5094304;28;20372;-72
2020/12/03 01:47:12;;;;;;;445.20;116.53;;;;;;;;;;5094542;28;20380;-72
2020/12/03 01:49:39;;;;;;;441.65;114.03;;;;;;;;;;5094085;28;20428;-72
2020/12/03 01:52:05;;;;;;;440.25;110.90;;;;;;;;;;5094038;28;20887;-72
2020/12/03 01:54:31;;;;;;;440.10;113.10;;;;;;;;;;5093995;28;20372;-72
2020/12/03 01:57:00;;;;;;;440.10;113.10;;;;;;;;;;5093930;28;20372;-73
2020/12/03 01:59:28;;;;;;;436.10;109.40;;;;;;;;;;5093767;28;20389;-72
2020/12/03 02:01:56;;;;;;;434.30;109.30;;;;;;;;;;5094221;28;20408;-72
2020/12/03 02:04:22;;;;;;;;;;;;;;;;;;5088107;28;25107;-72
2020/12/03 02:06:48;;;;;;;;;;;;;;;;;;5084185;28;25066;-72
2020/12/03 02:09:14;;;;;;;;;;;;;;;;;;5082499;28;25191;-72
2020/12/03 02:11:40;;;;;;;;;;;;;;;;;;5083353;28;25096;-72
2020/12/03 02:14:06;;;;;;;;;;;;;;;;;;5083288;28;25112;-72
2020/12/03 02:16:32;;;;;;;;;;;;;;;;;;5082749;28;25076;-72
2020/12/03 02:18:58;;;;;;;;;;;;;;;;;;5065304;28;20736;-72
2020/12/03 02:21:25;;;;;;;;;;;;;;;;;;5083480;28;25125;-72
2020/12/03 02:23:51;;;;;;;;;;;;;;;;;;5065480;28;25096;-72
2020/12/03 02:26:17;;;;;;;;;;;;;;;;;;5084414;28;25098;-72
2020/12/03 02:28:43;;;;;;;;;;;;;;;;;;5086676;28;20850;-71
2020/12/03 02:31:09;;;;;;;;;;;;;;;;;;5085062;28;20463;-71
2020/12/03 02:33:35;;;;;;;;;;;;;;;;;;5083229;28;20385;-71
2020/12/03 02:36:01;;;;;;;;;;;;;;;;;;5083615;28;20551;-71
2020/12/03 02:38:29;;;;;;;;;;;;;;;;;;5084678;28;20733;-71
2020/12/03 02:40:55;;;;;;;;;;;;;;;;;;5081779;28;20373;-72
2020/12/03 02:43:21;;;;;;;;;;;;;;;;;;5082247;28;25109;-72
2020/12/03 02:45:47;;;;;;;;;;;;;;;;;;5081715;28;25061;-72
2020/12/03 02:48:13;;;;;;;;;;;;;;;;;;5082335;28;25141;-71
2020/12/03 02:50:39;;;;;;;;;;;;;;;;;;5082910;28;20668;-72
2020/12/03 02:53:05;;;;;;;;;;;;;;;;;;5084611;28;25178;-72
2020/12/03 02:55:32;;;;;;;;;;;;;;;;;;5084967;28;25116;-72
2020/12/03 02:57:58;;;;;;;;;;;;;;;;;;5084291;28;20671;-72
2020/12/03 03:00:24;;;;;;;;;;;;;;;;;;5081596;28;20832;-72
2020/12/03 03:02:50;;;;;;;;;;;;;;;;;;5081532;28;20461;-72
2020/12/03 03:05:16;;;;;;;;;;;;;;;;;;5082617;28;20648;-72
2020/12/03 03:07:42;;;;;;;;;;;;;;;;;;5084754;28;20365;-72
2020/12/03 03:10:08;;;;;;;;;;;;;;;;;;5082846;28;20388;-73
2020/12/03 03:12:34;;;;;;;;;;;;;;;;;;5083293;28;25072;-72
2020/12/03 03:15:00;;;;;;;;;;;;;;;;;;5086529;28;20382;-72
2020/12/03 03:17:26;;;;;;;;;;;;;;;;;;5089995;28;20353;-72
2020/12/03 03:19:52;;;;;;;;;;;;;;;;;;5090465;28;20378;-72
2020/12/03 03:22:18;;;;;;;;;;;;;;;;;;5086279;28;25106;-72
2020/12/03 03:24:44;;;;;;;;;;;;;;;;;;5086314;28;20384;-72
2020/12/03 03:27:10;;;;;;;;;;;;;;;;;;5089738;28;20464;-71
2020/12/03 03:29:36;;;;;;;;;;;;;;;;;;5091120;28;20359;-71
2020/12/03 03:32:02;;;;;;;;;;;;;;;;;;5090861;28;20387;-72
2020/12/03 03:34:28;;;;;;;428.25;108.30;;;;;;;;;;5087871;28;20375;-72
2020/12/03 03:36:54;;;;;;;431.47;109.40;;;;;;;;;;5092303;28;20390;-72
2020/12/03 03:39:22;;;;;;;431.70;110.65;;;;;;;;;;5092162;28;20455;-72
2020/12/03 03:41:50;;;;;;;431.67;109.70;;;;;;;;;;5090992;28;20509;-72
2020/12/03 03:44:16;;;;;;;432.10;111.70;;;;;;;;;;5091838;28;20416;-71
2020/12/03 03:46:42;;;;;;;;;;;;;;;;;;5089819;28;20383;-72
2020/12/03 03:49:08;;;;;;;;;;;;;;;;;;5088313;28;20352;-72
2020/12/03 03:51:34;;;;;;;;;;;;;;;;;;5083275;28;20346;-72
2020/12/03 03:54:00;;;;;;;;;;;;;;;;;;5086099;28;20387;-72
2020/12/03 03:56:27;;;;;;;;;;;;;;;;;;5085865;28;20369;-72
2020/12/03 03:58:53;;;;;;;;;;;;;;;;;;5082785;28;20363;-71
2020/12/03 04:01:19;;;;;;;;;;;;;;;;;;5082394;28;25071;-70
2020/12/03 04:03:45;;;;;;;;;;;;;;;;;;5084676;28;25058;-71
2020/12/03 04:06:11;;;;;;;;;;;;;;;;;;5087703;28;25119;-72
2020/12/03 04:08:37;;;;;;;;;;;;;;;;;;5086411;28;25138;-72
2020/12/03 04:11:03;;;;;;;;;;;;;;;;;;5086473;28;25132;-73
2020/12/03 04:13:29;;;;;;;;;;;;;;;;;;5088416;28;25126;-73
2020/12/03 04:15:55;;;;;;;;;;;;;;;;;;5090491;28;25065;-71
2020/12/03 04:18:27;;;;;;;;;;;;;;;;;;5086635;28;25070;-72
2020/12/03 04:20:53;;;;;;;;;;;;;;;;;;5086175;28;25109;-71
2020/12/03 04:23:19;;;;;;;;;;;;;;;;;;5084760;28;25084;-71
2020/12/03 04:25:47;;;;;;;;;;;;;;;;;;5085626;28;25111;-72
2020/12/03 04:28:13;;;;;;;;;;;;;;;;;;5087157;28;25146;-71
2020/12/03 04:30:39;;;;;;;;;;;;;;;;;;5092913;28;25131;-71
2020/12/03 04:33:05;;;;;;;;;;;;;;;;;;5086229;28;20861;-73
2020/12/03 04:35:31;;;;;;;;;;;;;;;;;;5086502;28;20375;-72
2020/12/03 04:37:57;;;;;;;;;;;;;;;;;;5087342;28;20441;-72
2020/12/03 04:40:23;;;;;;;;;;;;;;;;;;5086264;28;25112;-72
2020/12/03 04:42:49;;;;;;;;;;;;;;;;;;5085161;28;25111;-72
2020/12/03 04:45:15;;;;;;;;;;;;;;;;;;5089889;28;20394;-73
2020/12/03 04:47:42;;;;;;;;;;;;;;;;;;5088026;28;25202;-73
2020/12/03 04:50:08;;;;;;;;;;;;;;;;;;5090643;28;20376;-73
2020/12/03 04:52:34;;;;;;;;;;;;;;;;;;5089582;28;20373;-71
2020/12/03 04:55:00;;;;;;;;;;;;;;;;;;5087536;28;20357;-71
2020/12/03 04:57:26;;;;;;;;;;;;;;;;;;5089202;28;25100;-75
2020/12/03 04:59:52;;;;;;;;;;;;;;;;;;5090419;28;20372;-70
2020/12/03 05:02:18;;;;;;;;;;;;;;;;;;5089742;28;20924;-72
2020/12/03 05:04:59;;;;;;;430.10;109.70;;;;;;;;;;5090473;28;20845;-68
2020/12/03 05:07:25;;;;;;;;;;;;;;;;;;5092399;28;20733;-68
2020/12/03 05:09:51;;;;;;;;;;;;;;;;;;5087313;28;20774;-68
2020/12/03 05:12:17;;;;;;;;;;;;;;;;;;5084462;28;25132;-68
2020/12/03 05:14:43;;;;;;;;;;;;;;;;;;5083913;28;25114;-67
2020/12/03 05:17:09;;;;;;;;;;;;;;;;;;5085145;28;20386;-72
2020/12/03 05:19:35;;;;;;;;;;;;;;;;;;5084809;28;20367;-72
2020/12/03 05:22:01;;;;;;;;;;;;;;;;;;5083837;28;20406;-71
2020/12/03 05:24:27;;;;;;;;;;;;;;;;;;5083976;28;25058;-72
2020/12/03 05:26:53;;;;;;;;;;;;;;;;;;5084705;28;25057;-68
2020/12/03 05:29:21;;;;;;;;;;;;;;;;;;5083890;28;25055;-67
2020/12/03 05:31:47;;;;;;;;;;;;;;;;;;5083692;28;20385;-68
2020/12/03 05:34:13;;;;;;;;;;;;;;;;;;5084454;28;20388;-68
2020/12/03 05:36:39;;;;;;;;;;;;;;;;;;5083903;28;25171;-72
2020/12/03 05:39:05;;;;;;;;;;;;;;;;;;5086554;28;25054;-67
2020/12/03 05:41:32;;;;;;;;;;;;;;;;;;5093339;28;25072;-68
2020/12/03 05:43:58;;;;;;;;;;;;;;;;;;5088458;28;25158;-72
2020/12/03 05:46:24;;;;;;;;;;;;;;;;;;5084210;28;20953;-68
2020/12/03 05:48:50;;;;;;;;;;;;;;;;;;5083851;28;25061;-70
2020/12/03 05:51:16;;;;;;;;;;;;;;;;;;5084395;28;25058;-68
2020/12/03 05:53:42;;;;;;;;;;;;;;;;;;5084795;28;25057;-68
2020/12/03 05:56:08;;;;;;;;;;;;;;;;;;5085000;28;25070;-68
2020/12/03 05:58:34;;;;;;;;;;;;;;;;;;5084709;28;20202;-68
2020/12/03 06:01:08;;;;;;;431.10;112.10;;;;;;;;;;5091571;28;20397;-68
2020/12/03 06:03:59;;;;;;;445.80;117.57;;;;;;;;;;5094340;28;20443;-68
2020/12/03 06:06:31;;;;;;;442.05;114.25;;;;;;;;;;5094059;28;20349;-71
2020/12/03 06:08:57;;;;;;;440.80;112.97;;;;;;;;;;5094342;28;20361;-68
2020/12/03 06:11:27;;;;;;;440.38;114.45;;;;;;;;;;5094444;28;20781;-69
2020/12/03 06:14:15;;;;;;;450.52;117.30;;;;;;;;;;5094284;28;20448;-69
2020/12/03 06:17:02;;;;;;;449.83;116.00;;;;;;;;;;5093549;28;20363;-69
2020/12/03 06:19:46;;;;;;;447.75;114.30;;;;;;;;;;5076575;28;20368;-70
2020/12/03 06:22:12;;;;;;;447.03;114.67;;;;;;;;;;5093431;28;20420;-69
2020/12/03 06:24:46;;;;;;;445.48;114.80;;;;;;;;;;5093663;28;20382;-73
2020/12/03 06:27:27;;;;;;;448.20;115.60;;;;;;;;;;5093237;28;20883;-69
2020/12/03 06:29:59;;;;;;;449.08;116.55;;;;;;;;;;5094231;28;20352;-69
2020/12/03 06:32:39;;;;;;;449.30;115.80;;;;;;;;;;5093720;28;20711;-69
2020/12/03 06:35:11;;;;;;;450.53;116.57;;;;;;;;;;5093671;28;20960;-72
2020/12/03 06:37:42;;;;;;;453.05;121.05;;;;;;;;;;5093538;28;20714;-68
2020/12/03 06:40:11;;;;;;;451.15;116.03;;;;;;;;;;5093212;28;20478;-69
2020/12/03 06:42:41;;;;;;;454.42;118.20;;;;;;;;;;5093009;28;20404;-69
2020/12/03 06:45:10;;;;;;;455.25;119.90;;;;;;;;;;5093192;28;20356;-73
2020/12/03 06:47:55;;;;;;;454.33;118.32;;;;;;;;;;5093136;28;20384;-74
2020/12/03 06:50:39;;;;;;;455.00;121.20;;;;;;;;;;5093055;28;20395;-68
2020/12/03 06:53:15;;;;;;;457.67;124.93;;;;;;;;;;5093434;28;20365;-69
2020/12/03 06:55:57;;;;;;;456.83;123.07;;;;;;;;;;5095448;28;20400;-69
2020/12/03 06:58:41;;;;;;;455.17;120.85;;;;;;;;;;5096832;28;20356;-69
2020/12/03 07:01:13;;;;;;;452.98;121.43;;;;;;;;;;5094968;28;20357;-69
2020/12/03 07:03:52;;;;;;;449.77;116.60;;;;;;;;;;5095629;28;20384;-69
2020/12/03 07:06:38;;;;;;;449.73;116.67;;;;;;;;;;5075137;28;20975;-69
2020/12/03 07:09:19;;;;;;;450.42;118.53;;;;;;;;;;5093740;28;20360;-69
2020/12/03 07:12:04;;;;;;;448.42;117.20;;;;;;;;;;5094273;28;20891;-69
2020/12/03 07:14:36;;;;;;;447.75;116.63;;;;;;;;;;5092586;28;20414;-73
2020/12/03 07:17:35;;;;;;;446.42;116.10;;;;;;;;;;5092939;28;20360;-69
2020/12/03 07:20:07;;;;;;;446.20;115.90;;;;;;;;;;5092958;28;20353;-69
2020/12/03 07:23:05;;;;;;;449.67;119.55;;;;;;;;;;5092413;28;20396;-68
2020/12/03 07:25:32;;;;;;;449.93;117.73;;;;;;;;;;5037485;28;20889;-68
2020/12/03 07:27:58;;;;;;;449.98;120.90;;;;;;;;;;5092508;28;20926;-68
2020/12/03 07:30:27;;;;;;;450.55;119.22;;;;;;;;;;5092367;28;20364;-68
2020/12/03 07:33:01;;;;;;;448.73;117.43;;;;;;;;;;5092415;28;20384;-68
2020/12/03 07:35:27;;;;;;;452.30;120.88;;;;;;;;;;5092345;28;20872;-71
2020/12/03 07:38:04;;;;;;;451.13;118.55;;;;;;;;;;5092075;28;20352;-68
2020/12/03 07:40:30;;;;;;;452.57;120.90;;;;;;;;;;5092012;28;20368;-67
2020/12/03 07:43:05;;;;;;;452.23;121.75;;;;;;;;;;5092342;28;20388;-74
2020/12/03 07:45:37;;;;;;;452.20;119.47;;;;;;;;;;5092336;28;20445;-68
2020/12/03 07:48:08;;;;;;;455.02;121.57;;;;;;;;;;5091013;28;20369;-68
2020/12/03 07:50:46;;;;;;;453.95;119.55;;;;;;;;;;5091997;28;20792;-68
2020/12/03 07:53:15;;;;;;;455.05;120.85;;;;;;;;;;5092511;28;20361;-68
2020/12/03 07:55:44;;;;;;;456.98;123.07;;;;;;;;;;5092405;28;20369;-68
2020/12/03 07:58:29;;;;;;;456.02;122.82;;;;;;;;;;5092401;28;20367;-72
2020/12/03 08:00:55;;;;;;;456.08;123.75;;;;;;;;;;5092291;28;20387;-68
2020/12/03 08:03:40;;;;;;;452.75;119.82;;;;;;;;;;5092069;28;20375;-68
2020/12/03 08:06:13;;;;;;;453.35;121.70;;;;;;;;;;5092006;28;20410;-68
2020/12/03 08:08:44;;;;;;;453.75;121.78;;;;;;;;;;5091924;28;20400;-75
2020/12/03 08:11:28;;;;;;;451.75;120.00;;;;;;;;;;5091973;28;20369;-69
2020/12/03 08:13:57;;;;;;;452.52;119.72;;;;;;;;;;5092560;28;20360;-68
2020/12/03 08:16:42;;;;;;;450.77;117.32;;;;;;;;;;5092275;28;20364;-68
2020/12/03 08:19:24;;;;;;;451.08;118.28;;;;;;;;;;5092225;28;20368;-74
2020/12/03 08:21:50;;;;;;;452.95;122.53;;;;;;;;;;5092045;28;20785;-71
2020/12/03 08:24:25;;;;;;;448.70;120.00;;;;;;;;;;5091862;28;20375;-68
2020/12/03 08:27:05;;;;;;;451.33;121.40;;;;;;;;;;5092138;28;20837;-68
2020/12/03 08:29:44;;;;;;;452.30;123.75;;;;;;;;;;5092036;28;20680;-68
2020/12/03 08:32:11;;;;;;;451.30;121.17;;;;;;;;;;5092080;28;20352;-68
2020/12/03 08:34:44;;;;;;;452.95;125.10;;;;;;;;;;5091739;28;20806;-68
2020/12/03 08:37:16;;;;;;;452.75;121.25;;;;;;;;;;5091637;28;20357;-72
2020/12/03 08:39:50;;;;;;;455.60;123.40;;;;;;;;;;5073755;28;20368;-68
2020/12/03 08:42:16;;;;;;;457.83;126.32;;;;;;;;;;5091519;28;20427;-68
2020/12/03 08:44:43;;;;;;;458.27;126.07;;;;;;;;;;5091746;28;20459;-67
2020/12/03 08:47:14;;;;;;;460.95;129.00;;;;;;;;;;5091875;28;20396;-67
2020/12/03 08:49:41;;;;;;;462.77;130.57;;;;;;;;;;5094312;28;20353;-67
2020/12/03 08:52:07;;;;;;;465.88;134.75;;;;;;;;;;5095278;28;20376;-69
2020/12/03 08:54:34;;;;;;;464.05;130.10;;;;;;;;;;5095088;28;20433;-67
2020/12/03 08:57:12;;;;;;;464.80;132.27;;;;;;;;;;5095396;28;20473;-67
2020/12/03 08:59:58;;;;;;;463.75;131.95;;;;;;;;;;5094986;28;20894;-67
2020/12/03 09:02:26;;;;;;;462.58;131.43;;;;;;;;;;5095121;28;20929;-67
2020/12/03 09:04:57;;;;;;;462.45;133.68;;;;;;;;;;5094990;28;20425;-67
2020/12/03 09:07:25;;;;;;;462.58;130.23;;;;;;;;;;5095217;28;20757;-67
2020/12/03 09:09:52;;;;;;;463.48;130.63;;;;;;;;;;5094861;28;20360;-67
2020/12/03 09:12:20;;;;;;;465.00;133.40;;;;;;;;;;5095095;28;20364;-67
2020/12/03 09:14:49;;;;;;;466.55;132.90;;;;;;;;;;5095080;28;20435;-77
2020/12/03 09:17:20;;;;;;;466.48;134.73;;;;;;;;;;5094632;28;20372;-67
2020/12/03 09:19:46;;;;;;;465.52;132.95;;;;;;;;;;5094951;28;20356;-78
2020/12/03 09:22:16;;;;;;;463.02;132.88;;;;;;;;;;5094823;28;20405;-67
2020/12/03 09:24:42;;;;;;;464.25;133.23;;;;;;;;;;5076591;28;20390;-67
2020/12/03 09:27:08;;;;;;;464.48;134.20;;;;;;;;;;5094552;28;20356;-67
2020/12/03 09:29:35;;;;;;;465.33;136.68;;;;;;;;;;5094994;28;20390;-67
2020/12/03 09:32:06;;;;;;;464.17;133.25;;;;;;;;;;5094692;28;20356;-67
2020/12/03 09:34:36;;;;;;;463.08;131.57;;;;;;;;;;5094962;28;20372;-67
2020/12/03 09:37:03;;;;;;;462.50;132.93;;;;;;;;;;5094952;28;20784;-66
2020/12/03 09:39:31;;;;;;;462.50;134.45;;;;;;;;;;5094200;28;20368;-67
2020/12/03 09:41:58;;;;;;;463.15;134.10;;;;;;;;;;5093970;28;20419;-66
2020/12/03 09:44:25;;;;;;;464.50;134.63;;;;;;;;;;5093977;28;20365;-67
2020/12/03 09:46:53;;;;;;;465.10;134.60;;;;;;;;;;5093987;28;20493;-80
2020/12/03 09:49:19;;;;;;;461.38;131.02;;;;;;;;;;5094113;28;20881;-66
2020/12/03 09:51:46;;;;;;;463.92;133.23;;;;;;;;;;5094424;28;20413;-67
2020/12/03 09:54:12;;;;;;;462.25;132.52;;;;;;;;;;5093970;28;20368;-66
2020/12/03 09:56:39;;;;;;;460.10;132.23;;;;;;;;;;5094310;28;20749;-66
2020/12/03 09:59:06;;;;;;;460.70;130.05;;;;;;;;;;5094067;28;20364;-68
2020/12/03 10:01:42;;;;;;;460.83;132.75;;;;;;;;;;5093790;28;20463;-67
2020/12/03 10:04:27;;;;;;;461.98;135.75;;;;;;;;;;5093826;28;20357;-67
2020/12/03 10:07:13;;;;;;;458.98;132.10;;;;;;;;;;5094027;28;20434;-66
2020/12/03 10:09:58;;;;;;;459.65;131.02;;;;;;;;;;5043320;28;20839;-68
2020/12/03 10:12:34;;;;;;;457.48;127.95;;;;;;;;;;5093627;28;20372;-66
2020/12/03 10:15:11;;;;;;;459.55;129.45;;;;;;;;;;5094506;28;20364;-67
2020/12/03 10:17:53;;;;;;;458.48;128.05;;;;;;;;;;5093667;28;20368;-67
2020/12/03 10:20:20;;;;;;;456.40;126.82;;;;;;;;;;5093548;28;20371;-67
2020/12/03 10:22:51;;;;;;;459.15;129.32;;;;;;;;;;5093731;28;20870;-67
2020/12/03 10:25:18;;;;;;;459.98;129.43;;;;;;;;;;5093545;28;20360;-67
2020/12/03 10:28:03;;;;;;;460.00;130.95;;;;;;;;;;5093727;28;20368;-67
2020/12/03 10:30:36;;;;;;;459.70;132.68;;;;;;;;;;5093603;28;20915;-79
2020/12/03 10:33:13;;;;;;;459.05;133.93;;;;;;;;;;5093372;28;20379;-67
2020/12/03 10:35:47;;;;;;;461.05;134.05;;;;;;;;;;5093178;28;20456;-67
2020/12/03 10:38:22;;;;;;;460.37;134.30;;;;;;;;;;5093074;28;20834;-67
2020/12/03 10:40:55;;;;;;;461.20;135.32;;;;;;;;;;5092823;28;20384;-66
2020/12/03 10:43:29;;;;;;;459.90;136.07;;;;;;;;;;5092995;28;20404;-67
2020/12/03 10:45:59;;;;;;;459.73;137.80;;;;;;;;;;5093626;28;20451;-67
2020/12/03 10:48:29;;;;;;;458.92;136.13;;;;;;;;;;5092954;28;20742;-67
2020/12/03 10:50:59;;;;;;;459.80;139.95;;;;;;;;;;5091828;28;20417;-66
2020/12/03 10:53:29;;;;;;;459.80;140.20;;;;;;;;;;5091734;28;20399;-65
2020/12/03 10:55:59;;;;;;;459.50;139.30;;;;;;;;;;5091739;28;20379;-64
2020/12/03 10:58:28;;;;;;;;;;;;;;;;;;5088816;28;20836;-76
2020/12/03 11:00:54;;;;;;;;;;;;;;;;;;5083437;28;20368;-65
2020/12/03 11:03:20;;;;;;;;;;;;;;;;;;5085199;28;31101;-64
2020/12/03 11:05:46;;;;;;;;;;;;;;;;;;5083864;28;20365;-64
2020/12/03 11:08:12;;;;;;;;;;;;;;;;;;5083575;28;20376;-64
2020/12/03 11:10:38;;;;;;;;;;;;;;;;;;5082055;28;20385;-79
2020/12/03 11:13:06;;;;;;;;;;;;;;;;;;5081965;28;20375;-64
2020/12/03 11:15:32;;;;;;;;;;;;;;;;;;5085478;28;20647;-76
2020/12/03 11:18:01;;;;;;;;;;;;;;;;;;5085599;28;20362;-69
2020/12/03 11:20:27;;;;;;;;;;;;;;;;;;5085478;28;25155;-70
2020/12/03 11:22:53;;;;;;;;;;;;;;;;;;5083297;28;25118;-68
2020/12/03 11:25:19;;;;;;;;;;;;;;;;;;5084122;28;20372;-68
2020/12/03 11:27:45;;;;;;;453.80;135.00;;;;;;;;;;5089306;28;20345;-69
2020/12/03 11:30:13;;;;;;;;;;;;;;;;;;5071399;28;20384;-70
2020/12/03 11:32:39;;;;;;;;;;;;;;;;;;5087802;28;20714;-69
2020/12/03 11:35:05;;;;;;;457.23;139.23;;;;;;;;;;5090739;28;20733;-68
2020/12/03 11:37:31;;;;;;;460.50;140.70;;;;;;;;;;5091906;28;20372;-68
2020/12/03 11:40:05;;;;;;;460.80;140.80;;;;;;;;;;5091761;28;20375;-70
2020/12/03 11:42:58;;;;;;;460.05;136.98;;;;;;;;;;5091786;28;20461;-68
2020/12/03 11:48:12;;;;;;;459.00;135.70;;;;;;;;;;5091829;28;20737;-68
2020/12/03 11:50:39;;;;;;;459.05;137.52;;;;;;;;;;5091794;28;20368;-68
2020/12/03 11:53:06;;;;;;;459.67;137.95;;;;;;;;;;5092173;28;20700;-68
2020/12/03 11:55:37;;;;;;;459.83;138.77;;;;;;;;;;5092073;28;20363;-71
2020/12/03 11:58:07;;;;;;;461.60;140.18;;;;;;;;;;5091845;28;20448;-68
2020/12/03 12:00:34;;;;;;;460.17;139.32;;;;;;;;;;5091561;28;20364;-68
2020/12/03 12:03:04;;;;;;;462.25;139.73;;;;;;;;;;5091693;28;20400;-69
2020/12/03 12:11:04;;;;;;;468.77;146.15;;;;;;;;;;5091651;28;20352;-68
2020/12/03 12:13:30;;;;;;;464.98;145.52;;;;;;;;;;5091866;28;20361;-68
2020/12/03 12:15:56;;;;;;;;;;;;;;;;;;5091697;28;20360;-68
2020/12/03 12:18:23;;;;;;;448.55;136.25;;;;;;;;;;5090407;28;20373;-67
2020/12/03 12:20:50;;;;;;;467.40;148.02;;;;;;;;;;5091589;28;20408;-69
2020/12/03 12:23:16;;;;;;;;;;;;;;;;;;5090531;28;20461;-68
2020/12/03 12:25:42;;;;;;;;;;;;;;;;;;5092889;28;20358;-69
2020/12/03 12:28:08;;;;;;;470.13;147.18;;;;;;;;;;5095286;28;20374;-67
2020/12/03 12:30:34;;;;;;;466.67;148.73;;;;;;;;;;5094212;28;20422;-68
2020/12/03 12:33:00;;;;;;;;;;;;;;;;;;5094161;28;20388;-68
2020/12/03 12:35:26;;;;;;;;;;;;;;;;;;5092947;28;20694;-68
2020/12/03 12:37:53;;;;;;;;;;;;;;;;;;5093874;28;20782;-71
2020/12/03 12:40:19;;;;;;;453.40;139.70;;;;;;;;;;5095338;28;20392;-70
2020/12/03 12:42:45;;;;;;;461.08;147.73;;;;;;;;;;5095221;28;20406;-71
2020/12/03 12:45:11;;;;;;;;;;;;;;;;;;5094329;28;20452;-68
2020/12/03 12:47:38;;;;;;;;;;;;;;;;;;5089923;28;25114;-69
2020/12/03 12:50:04;;;;;;;;;;;;;;;;;;5091363;28;25107;-69
2020/12/03 12:52:30;;;;;;;;;;;;;;;;;;5090978;28;20373;-67
2020/12/03 12:54:56;;;;;;;;;;;;;;;;;;5091879;28;20454;-69
2020/12/03 12:57:22;;;;;;;;;;;;;;;;;;5088084;28;25105;-71
2020/12/03 12:59:48;;;;;;;;;;;;;;;;;;5094884;28;20369;-69
2020/12/03 13:02:15;;;;;;;;;;;;;;;;;;5095166;28;20491;-69
2020/12/03 13:04:41;;;;;;;466.73;145.50;;;;;;;;;;5095215;28;20378;-68
2020/12/03 13:07:08;;;;;;;487.33;164.50;;;;;;;;;;5094958;28;20453;-72
2020/12/03 13:09:35;;;;;;;479.02;157.60;;;;;;;;;;5095295;28;20444;-68
2020/12/03 13:12:01;;;;;;;476.48;154.50;;;;;;;;;;5094879;28;20410;-68
2020/12/03 13:14:28;;;;;;;479.20;157.15;;;;;;;;;;5095115;28;20447;-69
2020/12/03 13:16:55;;;;;;;475.73;155.43;;;;;;;;;;5094892;28;20356;-68
2020/12/03 13:19:21;;;;;;;473.73;152.18;;;;;;;;;;5094725;28;20360;-68
2020/12/03 13:21:48;;;;;;;472.13;150.85;;;;;;;;;;5094693;28;20881;-68
2020/12/03 13:24:14;;;;;;;467.25;149.98;;;;;;;;;;5094965;28;20400;-68
2020/12/03 13:26:40;;;;;;;454.90;141.10;;;;;;;;;;5094696;28;20364;-67
2020/12/03 13:29:06;;;;;;;;;;;;;;;;;;5094525;28;20371;-68
2020/12/03 13:31:33;;;;;;;452.98;142.13;;;;;;;;;;5091368;28;20449;-72
2020/12/03 13:33:59;;;;;;;489.38;169.40;;;;;;;;;;5094829;28;20360;-67
2020/12/03 13:36:26;;;;;;;480.20;159.88;;;;;;;;;;5094173;28;20373;-76
2020/12/03 13:38:53;;;;;;;476.90;156.85;;;;;;;;;;5094721;28;20357;-67
2020/12/03 13:41:19;;;;;;;477.65;156.82;;;;;;;;;;5094126;28;20800;-68
2020/12/03 13:43:46;;;;;;;475.38;157.43;;;;;;;;;;5094936;28;20359;-69
2020/12/03 13:46:14;;;;;;;470.58;152.50;;;;;;;;;;5094659;28;20360;-71
2020/12/03 13:48:40;;;;;;;468.90;155.63;;;;;;;;;;5094166;28;20390;-68
2020/12/03 13:51:07;;;;;;;464.55;152.60;;;;;;;;;;5094437;28;20430;-68
2020/12/03 13:53:33;;;;;;;464.67;152.45;;;;;;;;;;5094178;28;20757;-74
2020/12/03 13:55:59;;;;;;;468.00;156.30;;;;;;;;;;5094697;28;20447;-73
2020/12/03 13:58:25;;;;;;;458.83;146.48;;;;;;;;;;5094299;28;20394;-72
2020/12/03 14:00:53;;;;;;;456.92;146.70;;;;;;;;;;5094071;28;20367;-70
2020/12/03 14:03:20;;;;;;;459.67;147.40;;;;;;;;;;5093783;28;20389;-72
2020/12/03 14:05:46;;;;;;;461.50;150.63;;;;;;;;;;5093869;28;20361;-68
2020/12/03 14:08:14;;;;;;;457.27;142.90;;;;;;;;;;5094086;28;20734;-71
2020/12/03 14:10:40;;;;;;;460.63;148.75;;;;;;;;;;5093807;28;20357;-71
2020/12/03 14:13:07;;;;;;;461.30;149.70;;;;;;;;;;5094008;28;20391;-71
2020/12/03 14:15:33;;;;;;;454.27;143.30;;;;;;;;;;5093886;28;20349;-70
2020/12/03 14:17:59;;;;;;;452.67;139.77;;;;;;;;;;5093601;28;20379;-71
2020/12/03 14:20:25;;;;;;;;;;;;;;;;;;5091790;28;20416;-70
2020/12/03 14:22:52;;;;;;;456.33;147.63;;;;;;;;;;5092013;28;20868;-71
2020/12/03 14:25:18;;;;;;;455.17;141.73;;;;;;;;;;5093669;28;20391;-71
2020/12/03 14:27:46;;;;;;;449.90;139.15;;;;;;;;;;5092814;28;20842;-71
2020/12/03 14:30:13;;;;;;;453.80;142.30;;;;;;;;;;5092924;28;20366;-70
2020/12/03 14:32:39;;;;;;;448.70;136.40;;;;;;;;;;5092074;28;20513;-71
2020/12/03 14:35:05;;;;;;;;;;;;;;;;;;5090821;28;20397;-70
2020/12/03 14:37:35;;;;;;;447.95;132.15;;;;;;;;;;5091902;28;25087;-71
2020/12/03 14:40:03;;;;;;;448.45;132.80;;;;;;;;;;5092044;28;20357;-71
2020/12/03 14:42:30;;;;;;;445.80;129.55;;;;;;;;;;5091780;28;20747;-71
2020/12/03 14:44:56;;;;;;;445.70;131.20;;;;;;;;;;5091181;28;20408;-71
2020/12/03 14:47:22;;;;;;;;;;;;;;;;;;5088587;28;20728;-71
2020/12/03 14:49:48;;;;;;;;;;;;;;;;;;5088350;28;20384;-71
2020/12/03 14:52:14;;;;;;;;;;;;;;;;;;5087901;28;20459;-72
2020/12/03 14:54:40;;;;;;;;;;;;;;;;;;5084915;28;20383;-71
2020/12/03 14:57:07;;;;;;;;;;;;;;;;;;5084267;28;25100;-71
2020/12/03 14:59:33;;;;;;;;;;;;;;;;;;5085920;28;25088;-71
2020/12/03 15:01:59;;;;;;;;;;;;;;;;;;5084625;28;25126;-73
2020/12/03 15:04:25;;;;;;;;;;;;;;;;;;5087392;28;20434;-73
2020/12/03 15:06:51;;;;;;;;;;;;;;;;;;5088852;28;20865;-71
2020/12/03 15:09:17;;;;;;;441.83;128.63;;;;;;;;;;5092331;28;20850;-71
2020/12/03 15:11:51;;;;;;;;;;;;;;;;;;5091799;28;20361;-70